Time;durP1;ratioP1;P1;durP2;ratioP2;P2;SDS_P1;SDS_P2;PMS_P1;PMS_P2;Temp;Humidity;BMP_temperature;BMP_pressure;BME280_temperature;BME280_humidity;BME280_pressure;Samples;Min_cycle;Max_cycle;Signal;HPM_P1;HPM_P2
2023/07/27 00:00:14;;;;;;;1.40;1.13;;;;;;;;;;6183176;28;20018;-66
2023/07/27 00:03:14;;;;;;;2.00;1.10;;;;;;;;;;6184852;28;20022;-65
2023/07/27 00:06:15;;;;;;;1.33;1.20;;;;;;;;;;6186237;28;20026;-66
2023/07/27 00:09:15;;;;;;;1.40;1.00;;;;;;;;;;6186386;28;20403;-65
2023/07/27 00:12:15;;;;;;;1.53;1.10;;;;;;;;;;6182557;28;20084;-65
2023/07/27 00:15:16;;;;;;;1.77;0.83;;;;;;;;;;6183517;28;20586;-63
2023/07/27 00:18:16;;;;;;;1.90;1.03;;;;;;;;;;6182714;28;20471;-67
2023/07/27 00:21:16;;;;;;;0.93;0.93;;;;;;;;;;6184542;28;20145;-68
2023/07/27 00:24:16;;;;;;;1.20;1.10;;;;;;;;;;6184625;28;20018;-65
2023/07/27 00:27:17;;;;;;;1.60;1.10;;;;;;;;;;6185725;28;20352;-66
2023/07/27 00:30:17;;;;;;;0.70;0.70;;;;;;;;;;6181331;28;20045;-67
2023/07/27 00:33:17;;;;;;;0.70;0.70;;;;;;;;;;6182471;28;20025;-65
2023/07/27 00:36:17;;;;;;;1.00;0.90;;;;;;;;;;6185903;28;20551;-64
2023/07/27 00:39:18;;;;;;;0.90;0.73;;;;;;;;;;6184911;28;20128;-66
2023/07/27 00:42:18;;;;;;;1.07;0.80;;;;;;;;;;6192349;28;20247;-68
2023/07/27 00:45:18;;;;;;;1.00;0.90;;;;;;;;;;6186415;28;20119;-67
2023/07/27 00:48:19;;;;;;;1.00;0.80;;;;;;;;;;6200697;28;20029;-66
2023/07/27 00:51:19;;;;;;;1.48;0.88;;;;;;;;;;6186116;28;20054;-67
2023/07/27 00:54:20;;;;;;;1.10;1.00;;;;;;;;;;6181998;28;20029;-67
2023/07/27 00:57:21;;;;;;;1.57;1.20;;;;;;;;;;6181215;28;20711;-67
2023/07/27 01:00:21;;;;;;;1.88;0.80;;;;;;;;;;6182149;28;20369;-65
2023/07/27 01:03:22;;;;;;;1.10;1.00;;;;;;;;;;6186211;28;20031;-64
2023/07/27 01:06:22;;;;;;;0.93;0.80;;;;;;;;;;6190111;28;20529;-65
2023/07/27 01:09:22;;;;;;;1.02;0.80;;;;;;;;;;6189953;28;20030;-66
2023/07/27 01:12:31;;;;;;;1.10;0.80;;;;;;;;;;6187438;28;20129;-68
2023/07/27 01:15:36;;;;;;;0.88;0.88;;;;;;;;;;6183926;28;20555;-67
2023/07/27 01:18:40;;;;;;;0.85;0.70;;;;;;;;;;6189892;28;20482;-67
2023/07/27 01:21:45;;;;;;;0.98;0.85;;;;;;;;;;6189594;28;20018;-66
2023/07/27 01:25:05;;;;;;;1.10;0.90;;;;;;;;;;6187620;28;20054;-67
2023/07/27 01:28:31;;;;;;;1.25;0.90;;;;;;;;;;6190316;28;20503;-65
2023/07/27 01:31:42;;;;;;;0.70;0.70;;;;;;;;;;6187712;28;20037;-67
2023/07/27 01:34:43;;;;;;;1.40;0.90;;;;;;;;;;6188444;28;20117;-68
2023/07/27 01:37:44;;;;;;;1.08;0.73;;;;;;;;;;6188045;28;20121;-67
2023/07/27 01:40:45;;;;;;;1.35;0.80;;;;;;;;;;6188027;28;20026;-66
2023/07/27 01:43:47;;;;;;;1.05;0.70;;;;;;;;;;6186617;28;20023;-66
2023/07/27 01:46:48;;;;;;;0.73;0.65;;;;;;;;;;6188835;28;20326;-67
2023/07/27 01:49:49;;;;;;;0.82;0.73;;;;;;;;;;6186284;28;20026;-68
2023/07/27 01:52:50;;;;;;;1.00;0.90;;;;;;;;;;6186959;28;20026;-67
2023/07/27 01:55:51;;;;;;;1.17;0.70;;;;;;;;;;6187068;28;20026;-66
2023/07/27 01:58:52;;;;;;;0.60;0.60;;;;;;;;;;6188739;28;20858;-66
2023/07/27 02:01:53;;;;;;;0.55;0.55;;;;;;;;;;6188667;28;20050;-66
2023/07/27 02:04:55;;;;;;;0.82;0.80;;;;;;;;;;6188288;28;20515;-67
2023/07/27 02:07:55;;;;;;;0.80;0.80;;;;;;;;;;6196551;28;20015;-66
2023/07/27 02:10:58;;;;;;;1.50;0.80;;;;;;;;;;6187991;28;20507;-66
2023/07/27 02:14:01;;;;;;;0.98;0.80;;;;;;;;;;6186715;28;20026;-66
2023/07/27 02:17:04;;;;;;;1.00;0.88;;;;;;;;;;6183871;28;20037;-64
2023/07/27 02:20:06;;;;;;;0.93;0.70;;;;;;;;;;6189351;28;20364;-65
2023/07/27 02:23:07;;;;;;;0.77;0.73;;;;;;;;;;6181796;28;20019;-65
2023/07/27 02:26:07;;;;;;;0.80;0.77;;;;;;;;;;6202824;28;20050;-63
2023/07/27 02:29:08;;;;;;;0.60;0.60;;;;;;;;;;6189009;28;20495;-65
2023/07/27 02:32:08;;;;;;;0.80;0.67;;;;;;;;;;6187087;28;20571;-68
2023/07/27 02:35:08;;;;;;;0.90;0.73;;;;;;;;;;6187776;28;20025;-68
2023/07/27 02:38:09;;;;;;;0.90;0.87;;;;;;;;;;6184668;28;20038;-67
2023/07/27 02:41:09;;;;;;;1.00;0.83;;;;;;;;;;6188981;28;20045;-66
2023/07/27 02:44:10;;;;;;;0.80;0.77;;;;;;;;;;6183143;28;20672;-65
2023/07/27 02:47:10;;;;;;;1.07;0.90;;;;;;;;;;6186014;28;20034;-66
2023/07/27 02:50:10;;;;;;;1.17;0.90;;;;;;;;;;6188405;28;20072;-66
2023/07/27 02:53:10;;;;;;;0.67;0.67;;;;;;;;;;6200834;28;20026;-65
2023/07/27 02:56:11;;;;;;;0.77;0.67;;;;;;;;;;6201823;28;20026;-67
2023/07/27 02:59:11;;;;;;;1.23;0.63;;;;;;;;;;6186140;28;20917;-66
2023/07/27 03:02:12;;;;;;;1.15;0.70;;;;;;;;;;6183782;28;20475;-65
2023/07/27 03:05:12;;;;;;;1.17;0.77;;;;;;;;;;6182213;28;20014;-66
2023/07/27 03:08:12;;;;;;;0.73;0.73;;;;;;;;;;6186866;28;20439;-66
2023/07/27 03:11:12;;;;;;;0.90;0.63;;;;;;;;;;6185746;28;20038;-66
2023/07/27 03:14:13;;;;;;;0.73;0.60;;;;;;;;;;6188256;28;20014;-66
2023/07/27 03:17:13;;;;;;;1.40;0.77;;;;;;;;;;6197824;28;20006;-66
2023/07/27 03:20:13;;;;;;;0.93;0.87;;;;;;;;;;6186770;28;20037;-67
2023/07/27 03:23:14;;;;;;;0.67;0.67;;;;;;;;;;6187682;28;20156;-68
2023/07/27 03:26:14;;;;;;;1.67;0.80;;;;;;;;;;6184787;28;20391;-67
2023/07/27 03:29:14;;;;;;;0.73;0.60;;;;;;;;;;6184923;28;20064;-66
2023/07/27 03:32:14;;;;;;;1.47;0.93;;;;;;;;;;6180898;28;20023;-67
2023/07/27 03:35:14;;;;;;;0.70;0.70;;;;;;;;;;6185086;28;20065;-69
2023/07/27 03:38:15;;;;;;;0.70;0.70;;;;;;;;;;6182564;28;20480;-69
2023/07/27 03:41:15;;;;;;;0.80;0.67;;;;;;;;;;6186113;28;20108;-68
2023/07/27 03:44:15;;;;;;;0.70;0.70;;;;;;;;;;6184861;28;20018;-68
2023/07/27 03:47:15;;;;;;;2.40;1.20;;;;;;;;;;6181529;28;20056;-68
2023/07/27 03:50:16;;;;;;;2.27;1.00;;;;;;;;;;6184145;28;20161;-66
2023/07/27 03:53:16;;;;;;;1.23;1.10;;;;;;;;;;6200695;28;21860;-67
2023/07/27 03:56:16;;;;;;;1.10;1.00;;;;;;;;;;6140415;28;1300289;-66
2023/07/27 03:59:17;;;;;;;4.20;2.53;;;;;;;;;;6186140;28;20306;-67
2023/07/27 04:02:17;;;;;;;2.27;1.70;;;;;;;;;;6182608;28;20030;-66
2023/07/27 04:05:17;;;;;;;1.40;1.23;;;;;;;;;;6187244;28;20026;-66
2023/07/27 04:08:18;;;;;;;3.13;2.27;;;;;;;;;;6176166;28;20062;-69
2023/07/27 04:11:18;;;;;;;1.60;1.50;;;;;;;;;;6180607;28;20026;-69
2023/07/27 04:14:18;;;;;;;2.00;1.40;;;;;;;;;;6172789;28;20060;-68
2023/07/27 04:17:18;;;;;;;1.63;1.07;;;;;;;;;;6186685;28;20346;-66
2023/07/27 04:20:19;;;;;;;1.00;0.90;;;;;;;;;;6176881;28;22127;-69
2023/07/27 04:23:19;;;;;;;1.30;1.00;;;;;;;;;;6189451;28;20124;-67
2023/07/27 04:26:19;;;;;;;1.63;1.10;;;;;;;;;;6175989;28;20027;-68
2023/07/27 04:29:19;;;;;;;0.93;0.83;;;;;;;;;;6189905;28;20053;-67
2023/07/27 04:32:19;;;;;;;2.27;1.17;;;;;;;;;;6173127;28;20034;-66
2023/07/27 04:35:20;;;;;;;1.50;1.20;;;;;;;;;;6197747;28;20039;-67
2023/07/27 04:38:20;;;;;;;2.00;0.80;;;;;;;;;;6178146;28;20447;-66
2023/07/27 04:41:20;;;;;;;1.07;0.90;;;;;;;;;;6178550;28;20498;-65
2023/07/27 04:44:21;;;;;;;1.33;0.90;;;;;;;;;;6180415;28;20026;-66
2023/07/27 04:47:21;;;;;;;1.50;1.13;;;;;;;;;;6189575;28;20031;-66
2023/07/27 04:50:21;;;;;;;1.67;1.00;;;;;;;;;;6181090;28;20036;-68
2023/07/27 04:53:22;;;;;;;1.03;0.80;;;;;;;;;;6175414;28;20030;-65
2023/07/27 04:56:22;;;;;;;1.53;0.80;;;;;;;;;;6188014;28;20038;-67
2023/07/27 04:59:22;;;;;;;0.87;0.83;;;;;;;;;;6172403;28;20034;-66
2023/07/27 05:02:22;;;;;;;1.80;1.07;;;;;;;;;;6189839;28;20070;-66
2023/07/27 05:05:22;;;;;;;1.87;1.00;;;;;;;;;;6191947;28;20435;-66
2023/07/27 05:08:23;;;;;;;2.50;1.17;;;;;;;;;;6182146;28;20514;-70
2023/07/27 05:11:23;;;;;;;2.40;0.90;;;;;;;;;;6177643;28;20515;-68
2023/07/27 05:14:23;;;;;;;1.33;0.93;;;;;;;;;;6173121;28;20391;-69
2023/07/27 05:17:23;;;;;;;1.50;0.90;;;;;;;;;;6175224;28;20039;-67
2023/07/27 05:20:24;;;;;;;1.03;0.93;;;;;;;;;;6174555;28;20045;-68
2023/07/27 05:23:24;;;;;;;1.63;1.00;;;;;;;;;;6174048;28;21453;-67
2023/07/27 05:26:24;;;;;;;1.10;0.97;;;;;;;;;;6174058;28;20019;-67
2023/07/27 05:29:24;;;;;;;2.00;1.10;;;;;;;;;;6177698;28;20027;-66
2023/07/27 05:32:25;;;;;;;1.00;0.90;;;;;;;;;;6175458;28;20620;-67
2023/07/27 05:35:25;;;;;;;1.33;0.80;;;;;;;;;;6173749;28;20029;-67
2023/07/27 05:38:25;;;;;;;1.40;1.00;;;;;;;;;;6174305;28;20023;-65
2023/07/27 05:41:25;;;;;;;1.30;0.90;;;;;;;;;;6172273;28;20681;-69
2023/07/27 05:44:26;;;;;;;2.00;1.00;;;;;;;;;;6174079;28;20042;-67
2023/07/27 05:47:26;;;;;;;1.20;1.10;;;;;;;;;;6184439;28;20396;-67
2023/07/27 05:50:26;;;;;;;1.58;1.15;;;;;;;;;;6191163;28;20058;-67
2023/07/27 05:53:27;;;;;;;0.87;0.80;;;;;;;;;;6186901;28;20062;-70
2023/07/27 05:56:27;;;;;;;2.20;1.00;;;;;;;;;;6190604;28;20030;-69
2023/07/27 05:59:27;;;;;;;1.33;1.20;;;;;;;;;;6187468;28;20018;-67
2023/07/27 06:02:28;;;;;;;0.93;0.87;;;;;;;;;;6182267;28;20535;-67
2023/07/27 06:05:28;;;;;;;2.00;1.02;;;;;;;;;;6181039;28;20508;-66
2023/07/27 06:08:29;;;;;;;0.80;0.80;;;;;;;;;;6182512;28;20030;-67
2023/07/27 06:11:29;;;;;;;1.10;0.98;;;;;;;;;;6181362;28;20245;-69
2023/07/27 06:14:30;;;;;;;1.10;0.80;;;;;;;;;;6182623;28;20033;-67
2023/07/27 06:17:30;;;;;;;0.90;0.77;;;;;;;;;;6194545;28;20116;-71
2023/07/27 06:20:30;;;;;;;2.08;0.98;;;;;;;;;;6182319;28;20033;-70
2023/07/27 06:23:30;;;;;;;1.47;1.03;;;;;;;;;;6184102;28;20080;-65
2023/07/27 06:26:31;;;;;;;1.70;1.00;;;;;;;;;;6183447;28;20152;-69
2023/07/27 06:29:31;;;;;;;1.20;0.80;;;;;;;;;;6174014;28;20045;-68
2023/07/27 06:32:31;;;;;;;1.10;1.00;;;;;;;;;;6171934;28;20093;-65
2023/07/27 06:35:32;;;;;;;1.43;0.93;;;;;;;;;;6179968;28;20029;-69
2023/07/27 06:38:32;;;;;;;1.58;1.10;;;;;;;;;;6182531;28;20105;-67
2023/07/27 06:41:32;;;;;;;1.75;1.15;;;;;;;;;;6187417;28;20098;-68
2023/07/27 06:44:33;;;;;;;1.03;0.83;;;;;;;;;;6178332;28;20050;-66
2023/07/27 06:47:33;;;;;;;1.00;0.90;;;;;;;;;;6180394;28;20528;-67
2023/07/27 06:50:33;;;;;;;1.87;1.30;;;;;;;;;;6177328;28;20113;-69
2023/07/27 06:53:33;;;;;;;1.70;1.20;;;;;;;;;;6182513;28;20425;-69
2023/07/27 06:56:34;;;;;;;1.13;1.00;;;;;;;;;;6177360;28;20031;-67
2023/07/27 06:59:34;;;;;;;;;;;;;;;;;;6183196;28;20037;-64
2023/07/27 07:02:34;;;;;;;1.60;1.00;;;;;;;;;;6176800;28;19914;-66
2023/07/27 07:05:35;;;;;;;1.50;1.10;;;;;;;;;;6199340;28;20037;-68
2023/07/27 07:08:35;;;;;;;4.00;1.07;;;;;;;;;;6177248;28;20050;-70
2023/07/27 07:11:35;;;;;;;;;;;;;;;;;;6185052;28;20030;-67
2023/07/27 07:14:35;;;;;;;1.10;1.00;;;;;;;;;;6191096;28;19916;-68
2023/07/27 07:17:36;;;;;;;1.30;0.97;;;;;;;;;;6192819;28;20033;-68
2023/07/27 07:20:36;;;;;;;;;;;;;;;;;;6195520;28;20018;-68
2023/07/27 07:23:36;;;;;;;0.97;0.90;;;;;;;;;;6198422;28;19912;-70
2023/07/27 07:26:37;;;;;;;;;;;;;;;;;;6194972;28;20046;-69
2023/07/27 07:29:37;;;;;;;0.90;0.85;;;;;;;;;;6196974;28;20025;-69
2023/07/27 07:32:37;;;;;;;;;;;;;;;;;;6195793;28;20022;-68
2023/07/27 07:35:40;;;;;;;1.50;0.90;;;;;;;;;;6195567;28;19910;-69
2023/07/27 07:38:41;;;;;;;1.40;1.10;;;;;;;;;;6194908;28;20030;-68
2023/07/27 07:41:41;;;;;;;;;;;;;;;;;;6192762;28;20030;-67
2023/07/27 07:44:41;;;;;;;0.93;0.80;;;;;;;;;;6195358;28;19916;-67
2023/07/27 07:47:41;;;;;;;;;;;;;;;;;;6197464;28;20049;-67
2023/07/27 07:50:41;;;;;;;1.30;1.15;;;;;;;;;;6193947;28;19995;-66
2023/07/27 07:53:42;;;;;;;;;;;;;;;;;;6189338;28;20030;-69
2023/07/27 07:56:42;;;;;;;2.13;1.40;;;;;;;;;;6193255;28;19921;-68
2023/07/27 07:59:42;;;;;;;;;;;;;;;;;;6194016;28;20030;-69
2023/07/27 08:02:42;;;;;;;1.05;0.90;;;;;;;;;;6198565;28;19910;-70
2023/07/27 08:05:42;;;;;;;;;;;;;;;;;;6209188;28;20034;-69
2023/07/27 08:08:43;;;;;;;1.30;1.05;;;;;;;;;;6206764;28;20011;-70
2023/07/27 08:11:43;;;;;;;1.48;1.02;;;;;;;;;;6207808;28;20492;-71
2023/07/27 08:14:43;;;;;;;1.45;1.00;;;;;;;;;;6212763;28;20018;-69
2023/07/27 08:17:44;;;;;;;1.83;1.20;;;;;;;;;;6224417;28;20116;-66
2023/07/27 08:20:44;;;;;;;1.15;1.02;;;;;;;;;;6198610;28;20116;-68
2023/07/27 08:23:45;;;;;;;1.80;1.42;;;;;;;;;;6205230;28;20045;-68
2023/07/27 08:26:45;;;;;;;1.25;1.08;;;;;;;;;;6194030;28;20026;-68
2023/07/27 08:29:46;;;;;;;1.23;1.13;;;;;;;;;;6197631;28;20125;-68
2023/07/27 08:32:46;;;;;;;1.30;1.20;;;;;;;;;;6207279;28;20080;-70
2023/07/27 08:35:47;;;;;;;1.30;1.17;;;;;;;;;;6209682;28;20072;-67
2023/07/27 08:38:47;;;;;;;1.40;1.30;;;;;;;;;;6196422;28;20158;-67
2023/07/27 08:41:47;;;;;;;2.37;1.43;;;;;;;;;;6193909;28;20101;-66
2023/07/27 08:44:48;;;;;;;1.10;1.05;;;;;;;;;;6204263;28;20345;-69
2023/07/27 08:47:49;;;;;;;0.95;0.95;;;;;;;;;;6217313;28;20029;-73
2023/07/27 08:50:49;;;;;;;1.55;1.10;;;;;;;;;;6212592;28;20095;-69
2023/07/27 08:53:49;;;;;;;1.45;1.33;;;;;;;;;;6209429;28;20014;-68
2023/07/27 08:56:50;;;;;;;2.13;1.20;;;;;;;;;;6200413;28;20122;-69
2023/07/27 08:59:51;;;;;;;1.33;1.03;;;;;;;;;;6212408;28;20809;-69
2023/07/27 09:02:51;;;;;;;1.25;1.02;;;;;;;;;;6215921;28;20522;-71
2023/07/27 09:05:58;;;;;;;2.13;1.33;;;;;;;;;;6216555;28;20034;-73
2023/07/27 09:08:58;;;;;;;1.25;1.10;;;;;;;;;;6217492;28;20026;-68
2023/07/27 09:11:59;;;;;;;1.20;1.10;;;;;;;;;;6213270;28;20041;-70
2023/07/27 09:14:59;;;;;;;1.50;1.30;;;;;;;;;;6203430;28;20026;-67
2023/07/27 09:18:01;;;;;;;1.20;0.90;;;;;;;;;;6210823;28;20026;-68
2023/07/27 09:21:06;;;;;;;1.10;1.00;;;;;;;;;;6216322;28;20015;-68
2023/07/27 09:24:10;;;;;;;1.50;1.10;;;;;;;;;;6212111;28;20520;-71
2023/07/27 09:27:13;;;;;;;1.35;1.10;;;;;;;;;;6218927;28;20018;-69
2023/07/27 09:30:16;;;;;;;1.17;1.08;;;;;;;;;;6218953;28;20026;-71
2023/07/27 09:33:20;;;;;;;2.28;1.20;;;;;;;;;;6220515;28;20497;-70
2023/07/27 09:36:20;;;;;;;1.40;1.27;;;;;;;;;;6219602;28;20014;-72
2023/07/27 09:39:22;;;;;;;1.13;1.03;;;;;;;;;;6218150;28;20025;-70
2023/07/27 09:42:22;;;;;;;1.10;1.00;;;;;;;;;;6216271;28;20018;-68
2023/07/27 09:45:22;;;;;;;1.67;1.33;;;;;;;;;;6213117;28;20037;-69
2023/07/27 09:48:22;;;;;;;1.20;1.10;;;;;;;;;;6209172;28;20359;-68
2023/07/27 09:51:24;;;;;;;1.92;1.08;;;;;;;;;;6209180;28;20053;-69
2023/07/27 09:54:25;;;;;;;1.85;1.00;;;;;;;;;;6205490;28;20026;-67
2023/07/27 09:57:26;;;;;;;2.00;1.13;;;;;;;;;;6210552;28;20034;-68
2023/07/27 10:00:26;;;;;;;0.98;0.90;;;;;;;;;;6215199;28;21652;-69
2023/07/27 10:03:27;;;;;;;1.48;1.00;;;;;;;;;;6213640;28;20025;-67
2023/07/27 10:06:28;;;;;;;1.00;0.90;;;;;;;;;;6211375;28;20030;-69
2023/07/27 10:09:28;;;;;;;1.35;0.90;;;;;;;;;;6200121;28;20316;-70
2023/07/27 10:12:29;;;;;;;1.03;0.93;;;;;;;;;;6193053;28;20049;-69
2023/07/27 10:15:29;;;;;;;1.77;1.10;;;;;;;;;;6203834;28;20061;-67
2023/07/27 10:18:29;;;;;;;0.90;0.90;;;;;;;;;;6198521;28;20022;-68
2023/07/27 10:21:29;;;;;;;2.22;1.10;;;;;;;;;;6201757;28;20289;-69
2023/07/27 10:24:45;;;;;;;0.70;0.70;;;;;;;;;;6215725;28;20025;-67
2023/07/27 10:27:58;;;;;;;1.00;0.80;;;;;;;;;;6198128;28;20348;-70
2023/07/27 10:31:30;;;;;;;4.30;1.30;;;;;;;;;;6191886;28;20019;-68
2023/07/27 10:34:32;;;;;;;1.23;0.93;;;;;;;;;;6170604;28;20154;-67
2023/07/27 10:37:51;;;;;;;0.75;0.70;;;;;;;;;;6196110;28;20018;-69
2023/07/27 10:40:52;;;;;;;0.97;0.70;;;;;;;;;;6189382;28;20550;-69
2023/07/27 10:44:07;;;;;;;1.23;0.95;;;;;;;;;;6196145;28;20045;-70
2023/07/27 10:47:15;;;;;;;1.30;1.20;;;;;;;;;;6211417;28;20065;-72
2023/07/27 10:50:17;;;;;;;1.15;1.00;;;;;;;;;;6197078;28;20368;-69
2023/07/27 10:53:18;;;;;;;1.20;1.00;;;;;;;;;;6201318;28;20033;-69
2023/07/27 10:56:18;;;;;;;1.43;1.00;;;;;;;;;;6195446;28;20026;-71
2023/07/27 10:59:18;;;;;;;0.90;0.90;;;;;;;;;;6197338;28;20293;-69
2023/07/27 11:02:21;;;;;;;1.45;0.57;;;;;;;;;;6196209;28;20048;-72
2023/07/27 11:05:21;;;;;;;1.05;0.80;;;;;;;;;;6198107;28;20564;-70
2023/07/27 11:08:26;;;;;;;1.57;0.90;;;;;;;;;;6191109;28;20044;-69
2023/07/27 11:11:29;;;;;;;1.20;1.10;;;;;;;;;;6196917;28;20026;-68
2023/07/27 11:14:30;;;;;;;1.42;1.05;;;;;;;;;;6195329;28;20022;-68
2023/07/27 11:17:33;;;;;;;0.95;0.90;;;;;;;;;;6192074;28;20403;-70
2023/07/27 11:20:33;;;;;;;0.98;0.93;;;;;;;;;;6201946;28;20026;-67
2023/07/27 11:23:40;;;;;;;1.10;1.00;;;;;;;;;;6193523;28;20025;-68
2023/07/27 11:26:40;;;;;;;1.63;1.00;;;;;;;;;;6191531;28;20250;-69
2023/07/27 11:29:45;;;;;;;0.77;0.77;;;;;;;;;;6198118;28;20022;-70
2023/07/27 11:32:58;;;;;;;0.98;0.98;;;;;;;;;;6207465;28;20014;-68
2023/07/27 11:35:59;;;;;;;1.10;1.00;;;;;;;;;;6205288;28;20025;-68
2023/07/27 11:39:01;;;;;;;1.15;1.02;;;;;;;;;;6212976;28;20022;-68
2023/07/27 11:42:06;;;;;;;1.60;1.02;;;;;;;;;;6195411;28;20069;-68
2023/07/27 11:45:07;;;;;;;1.73;1.00;;;;;;;;;;6192057;28;20023;-67
2023/07/27 11:48:07;;;;;;;1.17;1.00;;;;;;;;;;6193956;28;20061;-69
2023/07/27 11:51:07;;;;;;;0.87;0.87;;;;;;;;;;6190519;28;20027;-68
2023/07/27 11:54:09;;;;;;;1.20;1.10;;;;;;;;;;6192907;28;20033;-68
2023/07/27 11:57:09;;;;;;;1.20;1.10;;;;;;;;;;6195897;28;20323;-68
2023/07/27 12:00:13;;;;;;;1.10;0.87;;;;;;;;;;6195371;28;20026;-70
2023/07/27 12:03:13;;;;;;;0.80;0.80;;;;;;;;;;6194835;28;20018;-68
2023/07/27 12:06:13;;;;;;;1.13;1.07;;;;;;;;;;6194572;28;20010;-67
2023/07/27 12:09:14;;;;;;;0.93;0.90;;;;;;;;;;6188844;28;20451;-70
2023/07/27 12:12:14;;;;;;;0.90;0.90;;;;;;;;;;6197750;28;20049;-68
2023/07/27 12:15:31;;;;;;;1.52;1.00;;;;;;;;;;6194328;28;20014;-69
2023/07/27 12:18:31;;;;;;;1.20;1.00;;;;;;;;;;6196090;28;20030;-69
2023/07/27 12:21:31;;;;;;;1.30;1.20;;;;;;;;;;6191061;28;20038;-67
2023/07/27 12:24:31;;;;;;;1.10;1.00;;;;;;;;;;6197008;28;20025;-67
2023/07/27 12:27:32;;;;;;;1.03;0.90;;;;;;;;;;6194457;28;20030;-67
2023/07/27 12:30:32;;;;;;;1.13;1.03;;;;;;;;;;6181983;28;20023;-68
2023/07/27 12:33:32;;;;;;;1.30;1.20;;;;;;;;;;6193127;28;20042;-68
2023/07/27 12:36:32;;;;;;;1.50;1.40;;;;;;;;;;6194120;28;20117;-68
2023/07/27 12:39:33;;;;;;;1.20;1.10;;;;;;;;;;6193788;28;20026;-68
2023/07/27 12:42:33;;;;;;;1.40;1.30;;;;;;;;;;6193269;28;20026;-69
2023/07/27 12:45:33;;;;;;;1.80;1.37;;;;;;;;;;6193227;28;20383;-69
2023/07/27 12:48:33;;;;;;;1.40;1.20;;;;;;;;;;6193406;28;20018;-69
2023/07/27 12:51:34;;;;;;;0.97;0.97;;;;;;;;;;6187795;28;20018;-68
2023/07/27 12:54:34;;;;;;;1.27;1.17;;;;;;;;;;6193193;28;20022;-68
2023/07/27 12:57:34;;;;;;;1.00;0.90;;;;;;;;;;6193616;28;20093;-67
2023/07/27 13:00:34;;;;;;;1.43;1.27;;;;;;;;;;6190597;28;20033;-70
2023/07/27 13:03:36;;;;;;;1.10;1.00;;;;;;;;;;6198332;28;20040;-67
2023/07/27 13:06:37;;;;;;;0.82;0.82;;;;;;;;;;6192019;28;20042;-68
2023/07/27 13:09:37;;;;;;;1.20;1.00;;;;;;;;;;6198063;28;20379;-69
2023/07/27 13:12:37;;;;;;;1.33;1.23;;;;;;;;;;6196311;28;20129;-68
2023/07/27 13:15:38;;;;;;;1.20;1.13;;;;;;;;;;6197258;28;20019;-69
2023/07/27 13:18:38;;;;;;;1.40;1.30;;;;;;;;;;6191575;28;20098;-70
2023/07/27 13:21:38;;;;;;;1.23;1.13;;;;;;;;;;6191907;28;20480;-68
2023/07/27 13:24:38;;;;;;;1.40;1.30;;;;;;;;;;6213098;28;20540;-68
2023/07/27 13:27:39;;;;;;;1.30;1.20;;;;;;;;;;6196981;28;20727;-69
2023/07/27 13:30:39;;;;;;;1.57;1.30;;;;;;;;;;6197929;28;20098;-68
2023/07/27 13:33:39;;;;;;;1.00;1.00;;;;;;;;;;6197073;28;20480;-67
2023/07/27 13:36:40;;;;;;;1.02;1.00;;;;;;;;;;6197006;28;20022;-68
2023/07/27 13:39:41;;;;;;;1.00;1.00;;;;;;;;;;6197423;28;20026;-69
2023/07/27 13:42:41;;;;;;;1.38;1.10;;;;;;;;;;6197194;28;20107;-67
2023/07/27 13:45:42;;;;;;;1.10;1.10;;;;;;;;;;6197119;28;20029;-67
2023/07/27 13:48:42;;;;;;;1.33;1.23;;;;;;;;;;6197029;28;20026;-68
2023/07/27 13:51:42;;;;;;;1.37;1.30;;;;;;;;;;6197508;28;20026;-69
2023/07/27 13:54:42;;;;;;;1.10;1.00;;;;;;;;;;6212182;28;20026;-69
2023/07/27 13:57:43;;;;;;;1.10;1.00;;;;;;;;;;6196968;28;20034;-68
2023/07/27 14:00:43;;;;;;;1.10;1.00;;;;;;;;;;6191842;28;20121;-68
2023/07/27 14:03:43;;;;;;;1.23;1.13;;;;;;;;;;6196887;28;20022;-68
2023/07/27 14:06:44;;;;;;;1.10;1.10;;;;;;;;;;6197781;28;20254;-68
2023/07/27 14:09:44;;;;;;;1.20;1.15;;;;;;;;;;6196570;28;20065;-69
2023/07/27 14:12:44;;;;;;;1.20;1.20;;;;;;;;;;6196600;28;20137;-68
2023/07/27 14:15:45;;;;;;;1.20;1.10;;;;;;;;;;6196329;28;20022;-68
2023/07/27 14:18:46;;;;;;;1.20;1.10;;;;;;;;;;6196931;28;20049;-67
2023/07/27 14:21:46;;;;;;;1.33;1.23;;;;;;;;;;6195614;28;20080;-68
2023/07/27 14:24:46;;;;;;;1.40;1.30;;;;;;;;;;6197403;28;20015;-67
2023/07/27 14:27:47;;;;;;;1.13;1.03;;;;;;;;;;6195636;28;20042;-68
2023/07/27 14:30:48;;;;;;;1.27;1.10;;;;;;;;;;6194338;28;20029;-68
2023/07/27 14:33:48;;;;;;;3.15;1.30;;;;;;;;;;6199564;28;20403;-70
2023/07/27 14:36:48;;;;;;;1.17;1.07;;;;;;;;;;6199561;28;20656;-69
2023/07/27 14:39:48;;;;;;;1.10;1.00;;;;;;;;;;6198182;28;20034;-69
2023/07/27 14:42:49;;;;;;;0.97;0.97;;;;;;;;;;6198371;28;20030;-69
2023/07/27 14:45:49;;;;;;;1.40;1.20;;;;;;;;;;6191854;28;20022;-68
2023/07/27 14:48:51;;;;;;;1.20;1.10;;;;;;;;;;6190874;28;20448;-68
2023/07/27 14:51:52;;;;;;;0.98;0.90;;;;;;;;;;6196429;28;20034;-68
2023/07/27 14:54:53;;;;;;;2.00;1.20;;;;;;;;;;6187755;28;20073;-68
2023/07/27 14:57:53;;;;;;;2.08;1.33;;;;;;;;;;6190682;28;20281;-68
2023/07/27 15:00:53;;;;;;;1.57;1.47;;;;;;;;;;6196905;28;20072;-67
2023/07/27 15:03:54;;;;;;;1.30;1.20;;;;;;;;;;6197040;28;20057;-68
2023/07/27 15:06:54;;;;;;;1.40;1.30;;;;;;;;;;6197165;28;20463;-68
2023/07/27 15:09:54;;;;;;;1.43;1.33;;;;;;;;;;6196923;28;20777;-68
2023/07/27 15:12:57;;;;;;;1.60;1.50;;;;;;;;;;6196293;28;20057;-68
2023/07/27 15:15:57;;;;;;;1.60;1.50;;;;;;;;;;6195692;28;20391;-68
2023/07/27 15:18:57;;;;;;;1.50;1.40;;;;;;;;;;6195928;28;20018;-69
2023/07/27 15:21:58;;;;;;;1.60;1.50;;;;;;;;;;6194677;28;20018;-68
2023/07/27 15:24:58;;;;;;;1.30;1.20;;;;;;;;;;6194792;28;20384;-70
2023/07/27 15:28:03;;;;;;;1.40;1.30;;;;;;;;;;6195875;28;20079;-69
2023/07/27 15:31:04;;;;;;;1.23;1.13;;;;;;;;;;6195631;28;20439;-68
2023/07/27 15:34:04;;;;;;;1.55;1.45;;;;;;;;;;6194603;28;20026;-70
2023/07/27 15:37:05;;;;;;;1.50;1.40;;;;;;;;;;6194771;28;20018;-68
2023/07/27 15:40:05;;;;;;;1.27;1.17;;;;;;;;;;6195225;28;20014;-68
2023/07/27 15:43:06;;;;;;;1.20;1.10;;;;;;;;;;6194235;28;20395;-68
2023/07/27 15:46:06;;;;;;;1.30;1.20;;;;;;;;;;6194392;28;20018;-68
2023/07/27 15:49:07;;;;;;;1.50;0.80;;;;;;;;;;6188058;28;20058;-68
2023/07/27 15:52:07;;;;;;;0.90;0.90;;;;;;;;;;6181369;28;20483;-68
2023/07/27 15:55:08;;;;;;;1.17;0.95;;;;;;;;;;6175435;28;20037;-67
2023/07/27 15:58:09;;;;;;;2.53;0.88;;;;;;;;;;6182350;28;20455;-68
2023/07/27 16:01:09;;;;;;;1.80;0.90;;;;;;;;;;6182333;28;20030;-68
2023/07/27 16:04:09;;;;;;;0.87;0.80;;;;;;;;;;6173588;28;20277;-66
2023/07/27 16:07:09;;;;;;;0.90;0.90;;;;;;;;;;6176019;28;20270;-67
2023/07/27 16:10:10;;;;;;;1.20;1.10;;;;;;;;;;6179904;28;20034;-66
2023/07/27 16:13:10;;;;;;;4.40;1.00;;;;;;;;;;6178544;28;20304;-67
2023/07/27 16:16:10;;;;;;;1.00;0.80;;;;;;;;;;6179212;28;20105;-67
2023/07/27 16:19:11;;;;;;;3.40;1.10;;;;;;;;;;6189374;28;20490;-69
2023/07/27 16:22:12;;;;;;;1.23;1.02;;;;;;;;;;6192772;28;20444;-68
2023/07/27 16:25:12;;;;;;;1.65;1.00;;;;;;;;;;6191338;28;20149;-66
2023/07/27 16:28:12;;;;;;;1.23;1.13;;;;;;;;;;6180730;28;20026;-67
2023/07/27 16:31:13;;;;;;;1.07;0.97;;;;;;;;;;6174970;28;20335;-68
2023/07/27 16:34:13;;;;;;;1.75;1.17;;;;;;;;;;6175668;28;20030;-68
2023/07/27 16:37:13;;;;;;;1.10;1.00;;;;;;;;;;6171214;28;20014;-67
2023/07/27 16:40:14;;;;;;;1.00;0.90;;;;;;;;;;6177415;28;20064;-68
2023/07/27 16:43:14;;;;;;;1.73;1.00;;;;;;;;;;6179675;28;20301;-67
2023/07/27 16:46:14;;;;;;;1.10;1.00;;;;;;;;;;6172460;28;20030;-68
2023/07/27 16:49:15;;;;;;;1.13;1.03;;;;;;;;;;6177140;28;20143;-68
2023/07/27 16:52:15;;;;;;;1.15;1.00;;;;;;;;;;6192048;28;20271;-68
2023/07/27 16:55:15;;;;;;;1.40;1.30;;;;;;;;;;6192317;28;20030;-66
2023/07/27 16:58:16;;;;;;;1.07;0.93;;;;;;;;;;6188062;28;20354;-65
2023/07/27 17:01:17;;;;;;;1.20;1.08;;;;;;;;;;6192876;28;20281;-68
2023/07/27 17:04:17;;;;;;;1.63;1.10;;;;;;;;;;6190499;28;20029;-68
2023/07/27 17:07:18;;;;;;;1.50;0.90;;;;;;;;;;6189087;28;20156;-66
2023/07/27 17:10:18;;;;;;;1.45;1.08;;;;;;;;;;6176774;28;20324;-65
2023/07/27 17:13:20;;;;;;;1.23;1.13;;;;;;;;;;6174376;28;20447;-64
2023/07/27 17:16:20;;;;;;;0.85;0.80;;;;;;;;;;6180107;28;20415;-63
2023/07/27 17:19:21;;;;;;;1.00;0.90;;;;;;;;;;6169561;28;20232;-65
2023/07/27 17:22:22;;;;;;;1.75;1.17;;;;;;;;;;6177459;28;20649;-65
2023/07/27 17:25:22;;;;;;;1.10;1.00;;;;;;;;;;6184326;28;20034;-64
2023/07/27 17:28:25;;;;;;;1.23;1.10;;;;;;;;;;6181327;28;20064;-66
2023/07/27 17:31:25;;;;;;;1.50;1.25;;;;;;;;;;6179195;28;20324;-65
2023/07/27 17:34:27;;;;;;;2.17;0.93;;;;;;;;;;6167199;28;20054;-64
2023/07/27 17:37:27;;;;;;;1.38;1.02;;;;;;;;;;6181233;28;20268;-64
2023/07/27 17:40:28;;;;;;;1.05;0.95;;;;;;;;;;6176165;28;20057;-66
2023/07/27 17:43:28;;;;;;;1.07;0.90;;;;;;;;;;6175318;28;20022;-66
2023/07/27 17:46:28;;;;;;;1.30;1.10;;;;;;;;;;6178037;28;20031;-66
2023/07/27 17:49:29;;;;;;;1.05;0.98;;;;;;;;;;6173956;28;20053;-65
2023/07/27 17:52:29;;;;;;;1.23;1.07;;;;;;;;;;6184300;28;20030;-63
2023/07/27 17:55:29;;;;;;;0.80;0.80;;;;;;;;;;6181142;28;20172;-65
2023/07/27 17:58:30;;;;;;;1.17;1.05;;;;;;;;;;6182229;28;20436;-64
2023/07/27 18:01:30;;;;;;;1.65;1.02;;;;;;;;;;6182059;28;20049;-65
2023/07/27 18:04:30;;;;;;;1.23;0.90;;;;;;;;;;6176366;28;20049;-63
2023/07/27 18:07:31;;;;;;;1.00;1.00;;;;;;;;;;6179283;28;20340;-64